Waverly, Minnesota
Current Conditions -  °F | °C
As of 5:55 PM on Wednesday 26 Nov 2014 (Local Time) from KCFE Reporting Station
Overcast Overcast  
Wind Chill: 11°   Ceiling: 11000
Heat Index: 20°   Visibility: 10mi
Dew Point: 12°   Wind: 7mph
Humidity: 70%   Direction: 320°NW
Pressure: 30.31"   Gusts: NA
Location:  45.07°N, 93.97°W
Report Text: KCFE 262355Z AUTO 32006KT 10SM OVC110 M06/M11 A3031 RMK AO2 T10651112 11035 21065
Loading
Personal Weather Stations






























Interactive Weather Map New forecast layout! Learn more

10-Day Weather Forecast

Advertisements
Track Severe Weather on mobile